Time;durP1;ratioP1;P1;durP2;ratioP2;P2;SDS_P1;SDS_P2;PMS_P1;PMS_P2;Temp;Humidity;BMP_temperature;BMP_pressure;BME280_temperature;BME280_humidity;BME280_pressure;Samples;Min_cycle;Max_cycle;Signal;HPM_P1;HPM_P2
2022/05/26 00:00:19;;;;;;;0.32;0.32;;;;;;;16.07;59.61;101233.69;5208767;28;20044;-78
2022/05/26 00:03:06;;;;;;;0.25;0.25;;;;;;;15.92;60.45;101232.53;5212330;28;20114;-78
2022/05/26 00:05:40;;;;;;;0.30;0.30;;;;;;;15.97;60.28;101230.53;5196208;28;20043;-79
2022/05/26 00:08:11;;;;;;;3.42;0.40;;;;;;;16.07;59.41;101223.09;5196013;28;20029;-78
2022/05/26 00:10:41;;;;;;;1.00;0.57;;;;;;;16.20;58.92;101224.28;5194191;28;20049;-79
2022/05/26 00:13:12;;;;;;;0.30;0.30;;;;;;;16.12;59.38;101221.94;5176333;28;20053;-78
2022/05/26 00:15:42;;;;;;;0.60;0.60;;;;;;;16.09;59.47;101221.22;5194574;28;20045;-79
2022/05/26 00:18:13;;;;;;;0.30;0.30;;;;;;;16.04;59.88;101227.56;5197210;28;20041;-78
2022/05/26 00:20:44;;;;;;;0.20;0.20;;;;;;;16.00;59.90;101222.47;5186461;28;20549;-79
2022/05/26 00:23:14;;;;;;;0.52;0.52;;;;;;;15.96;60.07;101229.69;5193059;28;20095;-78
2022/05/26 00:25:46;;;;;;;0.20;0.20;;;;;;;15.99;60.15;101226.03;5163520;28;20602;-78
2022/05/26 00:28:16;;;;;;;1.48;1.38;;;;;;;15.92;60.62;101222.78;5193358;28;20450;-78
2022/05/26 00:30:48;;;;;;;0.40;0.40;;;;;;;15.78;61.30;101220.69;5214277;28;20074;-77
2022/05/26 00:33:19;;;;;;;0.45;0.32;;;;;;;15.87;61.28;101227.41;5222179;28;20037;-78
2022/05/26 00:35:50;;;;;;;0.50;0.50;;;;;;;15.82;61.49;101229.38;5195653;28;20041;-78
2022/05/26 00:38:21;;;;;;;1.10;0.85;;;;;;;15.88;60.74;101234.44;5196138;28;20040;-78
2022/05/26 00:41:04;;;;;;;0.20;0.20;;;;;;;15.90;61.21;101227.31;5181926;28;20045;-78
2022/05/26 00:43:40;;;;;;;0.30;0.30;;;;;;;15.86;61.26;101225.69;5166640;28;20025;-79
2022/05/26 00:46:35;;;;;;;0.20;0.20;;;;;;;15.88;61.56;101229.13;5182058;28;20042;-78
2022/05/26 00:49:13;;;;;;;0.20;0.20;;;;;;;15.88;61.00;101224.69;5212819;28;20048;-77
2022/05/26 00:51:45;;;;;;;0.20;0.20;;;;;;;15.99;60.94;101224.25;5222470;28;20085;-79
2022/05/26 00:54:21;;;;;;;0.32;0.32;;;;;;;15.82;62.27;101217.00;5174924;28;20056;-79
2022/05/26 00:56:51;;;;;;;0.20;0.20;;;;;;;15.86;61.93;101221.28;5187653;28;20029;-78
2022/05/26 00:59:33;;;;;;;1.98;0.45;;;;;;;15.82;62.64;101216.13;5167511;28;20044;-79
2022/05/26 01:02:04;;;;;;;0.22;0.22;;;;;;;15.81;62.75;101222.34;5179713;28;20086;-78
2022/05/26 01:04:58;;;;;;;0.20;0.20;;;;;;;15.77;62.67;101218.09;5189699;28;20060;-78
2022/05/26 01:07:33;;;;;;;0.40;0.40;;;;;;;15.74;63.07;101222.56;5208440;28;20039;-78
2022/05/26 01:10:06;;;;;;;0.40;0.40;;;;;;;15.80;63.22;101228.56;5176625;28;20044;-79
2022/05/26 01:12:37;;;;;;;0.50;0.50;;;;;;;15.80;62.15;101221.47;5193303;28;20090;-78
2022/05/26 01:15:15;;;;;;;14.50;0.95;;;;;;;15.86;62.05;101223.03;5190088;28;20491;-78
2022/05/26 01:17:55;;;;;;;0.47;0.47;;;;;;;15.85;62.78;101226.59;5196741;28;20036;-78
2022/05/26 01:20:37;;;;;;;0.85;0.85;;;;;;;15.87;62.22;101233.56;5193220;28;20037;-79
2022/05/26 01:23:45;;;;;;;0.30;0.30;;;;;;;15.82;63.05;101234.66;5205626;28;20119;-79
2022/05/26 01:26:46;;;;;;;0.20;0.20;;;;;;;15.97;61.57;101233.19;5171555;28;20291;-78
2022/05/26 01:29:39;;;;;;;0.30;0.30;;;;;;;15.88;62.84;101237.06;5207078;28;20048;-77
2022/05/26 01:32:26;;;;;;;0.20;0.20;;;;;;;15.94;62.37;101235.97;5241337;28;20021;-79
2022/05/26 01:35:22;;;;;;;0.30;0.30;;;;;;;15.92;62.45;101246.59;5224830;28;20021;-78
2022/05/26 01:38:18;;;;;;;0.40;0.40;;;;;;;16.00;61.66;101243.66;5229665;28;20033;-78
2022/05/26 01:41:31;;;;;;;0.20;0.20;;;;;;;15.85;63.59;101245.13;5210265;28;20119;-78
2022/05/26 01:44:11;;;;;;;0.32;0.32;;;;;;;15.82;63.37;101240.81;5215842;28;20017;-78
2022/05/26 01:46:43;;;;;;;0.30;0.30;;;;;;;15.87;63.90;101252.06;5187037;28;20021;-78
2022/05/26 01:49:17;;;;;;;0.30;0.30;;;;;;;15.73;64.56;101243.81;5176944;28;20090;-78
2022/05/26 01:51:47;;;;;;;;;;;;;;;15.76;64.82;101245.47;5192084;28;20113;-79
2022/05/26 01:54:28;;;;;;;0.80;0.75;;;;;;;15.73;64.81;101247.34;5181028;28;19979;-79
2022/05/26 01:57:08;;;;;;;3.20;0.82;;;;;;;15.81;64.68;101243.53;5180192;28;20040;-78
2022/05/26 02:00:08;;;;;;;0.30;0.30;;;;;;;15.84;64.62;101243.41;5213002;28;20333;-79
2022/05/26 02:02:50;;;;;;;0.30;0.30;;;;;;;15.69;65.73;101244.88;5182338;28;20132;-78
2022/05/26 02:05:24;;;;;;;0.28;0.28;;;;;;;15.67;65.45;101244.06;5206921;28;20052;-79
2022/05/26 02:07:58;;;;;;;0.30;0.30;;;;;;;15.73;64.56;101239.41;5165428;28;20057;-78
2022/05/26 02:10:36;;;;;;;0.30;0.30;;;;;;;15.72;65.18;101250.03;5175691;28;20042;-78
2022/05/26 02:13:19;;;;;;;0.30;0.30;;;;;;;15.80;64.94;101241.78;5168597;28;20041;-79
2022/05/26 02:15:56;;;;;;;0.20;0.20;;;;;;;15.64;65.73;101253.00;5184489;28;20033;-78
2022/05/26 02:18:33;;;;;;;0.52;0.50;;;;;;;15.63;65.51;101245.09;5196653;28;20033;-77
2022/05/26 02:21:15;;;;;;;0.45;0.45;;;;;;;15.63;65.89;101256.56;5225379;28;20045;-77
2022/05/26 02:23:58;;;;;;;0.30;0.30;;;;;;;15.77;65.04;101255.13;5201817;28;20041;-79
2022/05/26 02:26:31;;;;;;;0.30;0.30;;;;;;;15.68;65.16;101254.59;5187304;28;20025;-78
2022/05/26 02:31:53;;;;;;;0.30;0.30;;;;;;;15.58;66.26;101259.38;5198394;28;20037;-78
2022/05/26 02:34:25;;;;;;;0.30;0.30;;;;;;;15.69;65.65;101266.03;5196158;28;20114;-79
2022/05/26 02:36:58;;;;;;;0.30;0.30;;;;;;;15.67;65.54;101263.44;5185171;28;20032;-78
2022/05/26 02:39:28;;;;;;;0.30;0.30;;;;;;;15.67;65.67;101268.72;5182733;28;20415;-79
2022/05/26 02:41:59;;;;;;;0.55;0.55;;;;;;;15.62;66.10;101270.69;5172683;28;20037;-79
2022/05/26 02:44:32;;;;;;;0.30;0.30;;;;;;;15.62;65.92;101276.00;5187445;28;20052;-78
2022/05/26 02:47:16;;;;;;;0.40;0.40;;;;;;;15.59;66.11;101270.81;5168243;28;20185;-77
2022/05/26 02:49:59;;;;;;;0.20;0.20;;;;;;;15.61;66.34;101262.84;5185560;28;20060;-79
2022/05/26 02:52:36;;;;;;;0.40;0.40;;;;;;;15.52;66.93;101262.28;5165797;28;20404;-79
2022/05/26 02:55:25;;;;;;;0.20;0.20;;;;;;;15.54;66.52;101259.56;5192020;28;20118;-80
2022/05/26 02:58:05;;;;;;;0.82;0.82;;;;;;;15.48;67.20;101265.09;5217508;28;20025;-79
2022/05/26 03:01:07;;;;;;;0.20;0.20;;;;;;;15.55;65.89;101266.59;5202163;28;20037;-79
2022/05/26 03:03:47;;;;;;;0.20;0.20;;;;;;;15.37;67.88;101263.72;5191209;28;20029;-79
2022/05/26 03:06:26;;;;;;;0.77;0.77;;;;;;;15.52;66.35;101275.50;5168793;28;20109;-79
2022/05/26 03:09:00;;;;;;;0.73;0.73;;;;;;;15.61;66.23;101273.41;5204502;28;20071;-78
2022/05/26 03:11:49;;;;;;;0.85;0.85;;;;;;;15.57;66.76;101272.69;5198695;28;20033;-78
2022/05/26 03:14:20;;;;;;;0.40;0.40;;;;;;;15.45;67.40;101273.13;5202750;28;20029;-80
2022/05/26 03:16:51;;;;;;;0.30;0.30;;;;;;;15.31;68.16;101279.84;5181715;28;20099;-79
2022/05/26 03:19:21;;;;;;;0.30;0.30;;;;;;;15.24;68.55;101279.19;5189419;28;20053;-81
2022/05/26 03:21:52;;;;;;;0.43;0.43;;;;;;;15.34;68.27;101278.84;5177967;28;20037;-82
2022/05/26 03:24:22;;;;;;;0.32;0.32;;;;;;;15.28;68.67;101282.59;5176677;28;20614;-82
2022/05/26 03:26:53;;;;;;;1.98;0.98;;;;;;;15.35;68.17;101281.44;5163775;28;20071;-80
2022/05/26 03:29:23;;;;;;;4.95;1.40;;;;;;;15.27;68.79;101280.84;5175035;28;20068;-81
2022/05/26 03:31:54;;;;;;;0.28;0.28;;;;;;;15.29;68.32;101279.03;5194025;23;20046;-83
2022/05/26 03:42:54;;;;;;;0.50;0.50;;;;;;;15.35;68.37;101294.66;5209389;28;20072;-83
2022/05/26 03:45:25;;;;;;;0.35;0.35;;;;;;;15.34;68.56;101298.19;5171078;28;20295;-83
2022/05/26 03:47:55;;;;;;;0.60;0.60;;;;;;;15.33;68.62;101295.63;5175159;28;20037;-81
2022/05/26 03:50:26;;;;;;;0.40;0.40;;;;;;;15.27;69.18;101294.06;5196994;28;20038;-83
2022/05/26 03:52:57;;;;;;;0.80;0.80;;;;;;;15.26;69.37;101295.88;5198318;28;20113;-84
2022/05/26 03:55:27;;;;;;;0.30;0.30;;;;;;;15.31;69.21;101302.75;5164480;28;20050;-83
2022/05/26 03:57:59;;;;;;;0.30;0.30;;;;;;;15.21;69.70;101297.81;5180092;28;20426;-84
2022/05/26 04:00:31;;;;;;;0.65;0.65;;;;;;;15.29;68.78;101300.16;5156275;28;20481;-83
2022/05/26 04:03:02;;;;;;;0.60;0.60;;;;;;;15.26;69.57;101305.56;5186111;28;20038;-84
2022/05/26 04:05:32;;;;;;;0.40;0.40;;;;;;;15.27;69.14;101307.28;5173650;28;20096;-84
2022/05/26 04:08:03;;;;;;;0.45;0.45;;;;;;;15.18;70.40;101315.56;5152005;28;20029;-82
2022/05/26 04:10:33;;;;;;;0.82;0.82;;;;;;;15.15;70.31;101307.75;5147125;28;20497;-83
2022/05/26 04:13:04;;;;;;;0.30;0.30;;;;;;;15.26;69.71;101322.31;5164749;28;20018;-83
2022/05/26 04:15:35;;;;;;;0.73;0.73;;;;;;;15.11;70.69;101325.50;5166069;28;20157;-83
2022/05/26 04:18:05;;;;;;;0.20;0.20;;;;;;;15.20;70.55;101327.81;5180400;28;20056;-83
2022/05/26 04:20:36;;;;;;;0.32;0.32;;;;;;;15.24;69.82;101326.78;5172643;28;20037;-85
2022/05/26 04:23:07;;;;;;;0.20;0.20;;;;;;;15.27;70.05;101324.03;5150457;28;20323;-85
2022/05/26 04:25:37;;;;;;;0.50;0.50;;;;;;;15.27;69.54;101325.78;5165323;28;20045;-85
2022/05/26 04:28:08;;;;;;;0.85;0.52;;;;;;;15.28;69.07;101330.16;5159035;28;20041;-84
2022/05/26 04:30:38;;;;;;;1.10;1.08;;;;;;;15.32;69.57;101334.44;5162196;28;20042;-84
2022/05/26 04:33:08;;;;;;;0.40;0.40;;;;;;;15.25;69.89;101332.91;5172853;28;20029;-83
2022/05/26 04:35:39;;;;;;;0.30;0.30;;;;;;;15.38;68.94;101347.41;5176547;28;20073;-84
2022/05/26 04:38:09;;;;;;;0.32;0.32;;;;;;;15.34;69.37;101340.50;5171324;28;20034;-85
2022/05/26 04:40:40;;;;;;;0.40;0.40;;;;;;;15.16;70.59;101342.06;5170005;28;20041;-84
2022/05/26 04:43:12;;;;;;;0.20;0.20;;;;;;;15.17;70.91;101348.19;5148490;28;20045;-83
2022/05/26 04:45:42;;;;;;;0.30;0.30;;;;;;;15.21;69.75;101345.38;5165564;28;20046;-83
2022/05/26 04:48:13;;;;;;;0.30;0.30;;;;;;;15.17;70.29;101349.06;5149747;28;20036;-85
2022/05/26 04:50:44;;;;;;;1.85;1.33;;;;;;;15.26;69.93;101339.94;5153839;28;20022;-83
2022/05/26 04:53:14;;;;;;;2.83;1.25;;;;;;;15.25;70.40;101354.94;5166545;28;20022;-86
2022/05/26 04:55:45;;;;;;;0.98;0.93;;;;;;;15.29;69.09;101357.47;5150296;28;20042;-84
2022/05/26 04:58:15;;;;;;;0.22;0.22;;;;;;;15.26;69.94;101359.31;5168902;28;20064;-85
2022/05/26 05:00:46;;;;;;;1.85;1.27;;;;;;;15.27;69.78;101357.50;5173543;28;20042;-85
2022/05/26 05:03:17;;;;;;;0.50;0.50;;;;;;;15.26;70.67;101363.72;5180739;28;20098;-85
2022/05/26 05:05:47;;;;;;;5.35;1.20;;;;;;;15.27;69.92;101374.25;5185132;28;20036;-83
2022/05/26 05:08:18;;;;;;;6.93;2.05;;;;;;;15.33;69.95;101375.78;5153938;28;20029;-84
2022/05/26 05:10:48;;;;;;;0.80;0.75;;;;;;;15.29;70.02;101368.06;5162190;28;20044;-84
2022/05/26 05:13:19;;;;;;;0.32;0.32;;;;;;;15.26;70.48;101369.00;5162267;28;20088;-84
2022/05/26 05:16:10;;;;;;;0.90;0.75;;;;;;;15.20;70.66;101374.53;5172065;28;20038;-84
2022/05/26 05:18:40;;;;;;;0.50;0.50;;;;;;;15.27;70.45;101370.72;5135887;28;20389;-84
2022/05/26 05:21:15;;;;;;;0.30;0.30;;;;;;;15.32;69.65;101382.03;5170264;28;20129;-86
2022/05/26 05:23:52;;;;;;;1.85;1.65;;;;;;;15.36;70.09;101378.34;5176220;28;20037;-84
2022/05/26 05:26:27;;;;;;;0.60;0.60;;;;;;;15.30;70.64;101381.22;5173540;28;20473;-84
2022/05/26 05:29:04;;;;;;;0.40;0.40;;;;;;;15.28;70.55;101377.75;5157037;28;20030;-82
2022/05/26 05:31:44;;;;;;;0.73;0.73;;;;;;;15.30;70.74;101383.84;5148212;28;20168;-85
2022/05/26 05:34:19;;;;;;;7.97;1.75;;;;;;;15.31;71.24;101388.22;5166803;28;20025;-83
2022/05/26 05:36:50;;;;;;;0.20;0.20;;;;;;;15.39;70.52;101395.88;5166655;28;20026;-84
2022/05/26 05:39:20;;;;;;;0.20;0.20;;;;;;;15.41;70.17;101384.31;5146170;28;20046;-83
2022/05/26 05:41:54;;;;;;;0.70;0.70;;;;;;;15.40;70.69;101393.19;5159762;28;20049;-81
2022/05/26 05:44:25;;;;;;;8.20;1.90;;;;;;;15.38;70.69;101400.31;5158000;28;20064;-82
2022/05/26 05:46:59;;;;;;;0.38;0.38;;;;;;;15.45;70.51;101402.72;5173069;28;20037;-85
2022/05/26 05:49:30;;;;;;;;;;;;;;;15.47;70.19;101411.47;5155121;28;20037;-82
2022/05/26 05:52:11;;;;;;;2.20;1.17;;;;;;;15.49;70.42;101402.53;5154880;28;20046;-82
2022/05/26 05:54:42;;;;;;;0.30;0.30;;;;;;;15.50;70.21;101408.69;5153485;28;20037;-85
2022/05/26 05:57:12;;;;;;;7.88;1.33;;;;;;;15.54;70.01;101415.59;5151084;28;20063;-80
2022/05/26 05:59:43;;;;;;;0.82;0.82;;;;;;;15.42;71.23;101411.63;5174328;28;20068;-81
2022/05/26 06:02:14;;;;;;;0.50;0.50;;;;;;;15.51;70.61;101421.00;5163131;28;20022;-80
2022/05/26 06:04:44;;;;;;;1.45;1.35;;;;;;;15.62;69.79;101413.53;5179469;28;20034;-82
2022/05/26 06:07:17;;;;;;;1.98;1.15;;;;;;;15.55;70.39;101423.47;5142103;28;20021;-81
2022/05/26 06:09:49;;;;;;;0.50;0.50;;;;;;;15.63;69.90;101420.56;5190360;28;20084;-82
2022/05/26 06:12:20;;;;;;;0.50;0.50;;;;;;;15.65;70.09;101428.44;5196697;28;20021;-82
2022/05/26 06:14:50;;;;;;;0.55;0.55;;;;;;;15.75;69.38;101435.09;5174796;28;20030;-83
2022/05/26 06:17:21;;;;;;;1.63;1.52;;;;;;;15.77;69.25;101437.69;5161415;28;20089;-82
2022/05/26 06:19:52;;;;;;;0.40;0.40;;;;;;;15.78;68.74;101440.28;5178747;28;20199;-82
2022/05/26 06:22:23;;;;;;;2.00;0.80;;;;;;;15.75;69.42;101440.41;5164761;28;20068;-83
2022/05/26 06:24:53;;;;;;;1.33;0.75;;;;;;;15.84;69.26;101444.50;5178366;28;20053;-83
2022/05/26 06:30:16;;;;;;;1.55;1.08;;;;;;;15.78;70.13;101442.06;5199598;28;20053;-83
2022/05/26 06:38:36;;;;;;;5.53;1.40;;;;;;;16.06;68.11;101444.56;5164995;28;20058;-83
2022/05/26 06:43:59;;;;;;;2.45;1.40;;;;;;;16.15;68.18;101459.22;5184102;28;20124;-83
2022/05/26 06:46:30;;;;;;;5.05;1.85;;;;;;;16.19;67.86;101456.41;5181422;28;20043;-83
2022/05/26 06:49:01;;;;;;;0.35;0.35;;;;;;;16.16;68.21;101455.63;5168904;28;20064;-81
2022/05/26 06:51:36;;;;;;;0.68;0.68;;;;;;;16.17;67.96;101462.66;5190432;28;20053;-81
2022/05/26 06:54:06;;;;;;;1.40;1.30;;;;;;;16.26;67.88;101464.09;5189891;28;20402;-82
2022/05/26 06:56:38;;;;;;;0.55;0.55;;;;;;;16.17;68.22;101458.25;5193876;28;20026;-82
2022/05/26 06:59:08;;;;;;;1.65;1.05;;;;;;;16.19;68.62;101466.13;5183252;28;20018;-82
2022/05/26 07:01:38;;;;;;;0.40;0.40;;;;;;;16.26;68.07;101467.59;5193742;28;20322;-82
2022/05/26 07:04:09;;;;;;;0.60;0.60;;;;;;;16.24;67.59;101476.53;5172153;28;20029;-82
2022/05/26 07:06:39;;;;;;;0.82;0.32;;;;;;;16.34;67.85;101472.63;5193137;28;20034;-82
2022/05/26 07:09:10;;;;;;;1.55;1.10;;;;;;;16.26;67.79;101472.91;5181148;28;20324;-82
2022/05/26 07:11:40;;;;;;;0.55;0.55;;;;;;;16.26;67.64;101480.00;5175184;28;20101;-83
2022/05/26 07:14:12;;;;;;;1.75;0.80;;;;;;;16.38;67.11;101482.16;5168972;28;20037;-82
2022/05/26 07:16:45;;;;;;;1.70;0.98;;;;;;;16.44;66.38;101481.03;5151580;28;20026;-82
2022/05/26 07:19:17;;;;;;;0.40;0.40;;;;;;;16.56;66.21;101491.16;5166972;28;20084;-82
2022/05/26 07:21:49;;;;;;;0.60;0.60;;;;;;;16.47;66.84;101491.53;5168463;28;20103;-82
2022/05/26 07:24:24;;;;;;;0.30;0.30;;;;;;;16.56;66.75;101496.47;5174678;28;20033;-82
2022/05/26 07:26:55;;;;;;;0.80;0.80;;;;;;;16.42;66.59;101485.53;5165815;28;20041;-82
2022/05/26 07:29:26;;;;;;;1.40;1.30;;;;;;;16.42;66.69;101501.44;5137184;28;20089;-82
2022/05/26 07:31:58;;;;;;;0.63;0.63;;;;;;;16.48;66.67;101503.84;5151465;28;20033;-82
2022/05/26 07:34:29;;;;;;;0.50;0.50;;;;;;;16.51;66.58;101501.06;5183626;28;20026;-82
2022/05/26 07:42:38;;;;;;;0.65;0.65;;;;;;;16.59;66.21;101514.88;5183874;28;20034;-83
2022/05/26 07:45:09;;;;;;;15.90;2.25;;;;;;;16.58;65.93;101510.50;5166848;28;20533;-82
2022/05/26 07:47:40;;;;;;;0.85;0.70;;;;;;;16.58;65.50;101517.59;5179158;28;20026;-82
2022/05/26 07:50:19;;;;;;;1.00;0.75;;;;;;;16.61;65.58;101510.38;5153413;28;20251;-82
2022/05/26 07:52:50;;;;;;;2.50;1.63;;;;;;;16.68;65.69;101516.31;5164121;28;20026;-82
2022/05/26 07:55:21;;;;;;;0.80;0.80;;;;;;;16.79;65.33;101510.56;5161958;28;20046;-82
2022/05/26 07:57:53;;;;;;;0.43;0.43;;;;;;;16.84;64.88;101514.75;5161454;28;20041;-82
2022/05/26 08:00:24;;;;;;;0.45;0.45;;;;;;;16.81;64.25;101516.69;5149052;28;20030;-82
2022/05/26 08:02:54;;;;;;;0.50;0.50;;;;;;;16.83;63.98;101523.63;5145256;28;20040;-82
2022/05/26 08:05:25;;;;;;;2.70;2.17;;;;;;;16.91;63.47;101528.59;5159896;28;20133;-83
2022/05/26 08:07:55;;;;;;;0.88;0.88;;;;;;;16.88;64.23;101522.56;5183758;28;20022;-82
2022/05/26 08:10:26;;;;;;;1.15;1.08;;;;;;;16.91;64.38;101528.59;5184798;28;20530;-82
2022/05/26 08:12:56;;;;;;;0.98;0.98;;;;;;;16.92;63.72;101529.47;5176432;28;20029;-83
2022/05/26 08:15:27;;;;;;;0.40;0.40;;;;;;;16.90;63.88;101532.19;5182579;28;20042;-83
2022/05/26 08:17:58;;;;;;;1.15;1.10;;;;;;;16.92;64.09;101532.13;5169448;28;20040;-82
2022/05/26 08:20:29;;;;;;;0.50;0.50;;;;;;;17.01;63.87;101531.78;5182090;28;20061;-82
2022/05/26 08:22:59;;;;;;;0.40;0.40;;;;;;;17.08;63.78;101545.63;5172369;28;20025;-82
2022/05/26 08:25:30;;;;;;;1.63;1.52;;;;;;;17.26;63.37;101541.38;5157502;28;20052;-82
2022/05/26 08:28:00;;;;;;;2.25;1.77;;;;;;;17.26;63.12;101544.88;5189168;28;20032;-83
2022/05/26 08:30:31;;;;;;;0.77;0.70;;;;;;;17.34;62.74;101551.63;5174422;28;20038;-82
2022/05/26 08:33:02;;;;;;;0.45;0.45;;;;;;;17.26;63.11;101552.84;5175415;28;20041;-82
2022/05/26 08:35:33;;;;;;;0.30;0.30;;;;;;;17.25;61.72;101564.38;5161533;28;20041;-83
2022/05/26 08:38:03;;;;;;;0.73;0.73;;;;;;;17.29;61.32;101554.50;5174615;28;20087;-83
2022/05/26 08:40:41;;;;;;;1.02;0.90;;;;;;;17.37;61.38;101565.63;5155626;28;20060;-83
2022/05/26 08:43:23;;;;;;;0.80;0.80;;;;;;;17.28;60.72;101572.19;5190112;28;20249;-83
2022/05/26 08:45:54;;;;;;;0.22;0.22;;;;;;;17.30;60.05;101567.72;5183439;28;20033;-83
2022/05/26 08:48:55;;;;;;;0.55;0.50;;;;;;;17.31;60.62;101564.09;5190420;28;20033;-83
2022/05/26 08:51:48;;;;;;;0.30;0.30;;;;;;;17.39;60.10;101566.44;5171209;28;20038;-83
2022/05/26 08:54:24;;;;;;;0.57;0.57;;;;;;;17.39;60.71;101570.91;5204413;28;20078;-83
2022/05/26 08:57:00;;;;;;;0.85;0.85;;;;;;;17.37;61.27;101576.25;5151596;28;20561;-82
2022/05/26 08:59:41;;;;;;;0.65;0.65;;;;;;;17.30;62.31;101583.63;5163972;28;20438;-82
2022/05/26 09:02:21;;;;;;;0.88;0.88;;;;;;;17.36;61.94;101581.63;5166034;28;20026;-82
2022/05/26 09:04:56;;;;;;;0.55;0.55;;;;;;;17.13;61.02;101586.09;5167305;28;20048;-82
2022/05/26 09:13:42;;;;;;;0.95;0.85;;;;;;;17.11;61.73;101583.50;5173225;28;20060;-82
2022/05/26 09:16:13;;;;;;;1.15;1.15;;;;;;;17.11;61.99;101586.16;5173896;28;20060;-83
2022/05/26 09:18:44;;;;;;;0.32;0.32;;;;;;;17.19;62.27;101585.00;5159002;28;20378;-83
2022/05/26 09:21:28;;;;;;;0.63;0.63;;;;;;;17.27;62.06;101582.88;5165670;28;20093;-83
2022/05/26 09:24:17;;;;;;;0.40;0.40;;;;;;;17.40;61.52;101593.81;5165688;28;20430;-83
2022/05/26 09:27:19;;;;;;;0.63;0.63;;;;;;;17.47;60.85;101590.00;5154682;28;20045;-83
2022/05/26 09:29:49;;;;;;;0.45;0.45;;;;;;;17.47;60.82;101587.34;5210027;28;20046;-82
2022/05/26 09:32:30;;;;;;;0.80;0.80;;;;;;;17.40;60.83;101591.16;5156079;28;20091;-83
2022/05/26 09:35:06;;;;;;;0.45;0.45;;;;;;;17.46;60.71;101591.78;5165609;28;20045;-83
2022/05/26 09:37:49;;;;;;;0.40;0.40;;;;;;;17.44;59.48;101600.72;5193181;28;20037;-83
2022/05/26 09:40:19;;;;;;;0.40;0.40;;;;;;;17.43;59.31;101593.69;5165884;28;20109;-83
2022/05/26 09:42:59;;;;;;;0.75;0.75;;;;;;;17.45;59.08;101597.16;5198660;28;20029;-83
2022/05/26 09:45:42;;;;;;;0.55;0.55;;;;;;;17.56;59.82;101594.03;5189909;28;20113;-83
2022/05/26 09:48:19;;;;;;;1.20;1.10;;;;;;;17.62;58.91;101602.63;5179344;28;20133;-83
2022/05/26 09:50:53;;;;;;;0.77;0.77;;;;;;;17.66;58.52;101594.50;5159641;28;20034;-83
2022/05/26 09:53:29;;;;;;;15.05;1.80;;;;;;;17.68;58.47;101606.81;5158661;28;20259;-83
2022/05/26 09:55:59;;;;;;;1.63;0.63;;;;;;;17.85;58.54;101605.22;5174662;28;20061;-83
2022/05/26 09:58:34;;;;;;;0.40;0.40;;;;;;;17.87;58.31;101603.31;5162957;28;20034;-83
2022/05/26 10:01:29;;;;;;;0.40;0.40;;;;;;;17.93;58.30;101608.41;5170673;28;20064;-82
2022/05/26 10:04:21;;;;;;;0.40;0.40;;;;;;;18.06;58.20;101608.72;5161302;28;20053;-83
2022/05/26 10:07:04;;;;;;;2.80;0.47;;;;;;;17.90;57.07;101608.50;5197637;28;20045;-83
2022/05/26 10:09:47;;;;;;;1.13;0.75;;;;;;;17.95;57.65;101609.16;5177388;28;20441;-83
2022/05/26 10:12:30;;;;;;;0.40;0.40;;;;;;;17.96;57.49;101599.47;5173805;28;20030;-83
2022/05/26 10:15:22;;;;;;;0.40;0.40;;;;;;;18.03;57.70;101608.88;5201230;28;20056;-83
2022/05/26 10:18:17;;;;;;;0.30;0.30;;;;;;;18.15;57.21;101605.66;5149230;28;20372;-83
2022/05/26 10:21:09;;;;;;;0.60;0.60;;;;;;;18.23;57.03;101615.94;5155240;28;20212;-83
2022/05/26 10:23:39;;;;;;;0.50;0.50;;;;;;;18.45;56.34;101604.31;5162896;28;20026;-83
2022/05/26 10:26:22;;;;;;;0.73;0.73;;;;;;;18.44;56.54;101602.59;5171585;28;20042;-84
2022/05/26 10:29:05;;;;;;;0.47;0.47;;;;;;;18.45;55.79;101607.88;5153020;28;20094;-83
2022/05/26 10:31:39;;;;;;;4.32;2.10;;;;;;;18.51;55.10;101618.19;5171686;28;20097;-83
2022/05/26 10:34:24;;;;;;;0.93;0.68;;;;;;;18.49;55.08;101617.41;5167284;28;20042;-84
2022/05/26 10:37:07;;;;;;;0.63;0.63;;;;;;;18.35;54.56;101614.53;5166642;28;20026;-83
2022/05/26 10:39:40;;;;;;;0.45;0.45;;;;;;;18.45;54.59;101615.84;5180377;28;20052;-83
2022/05/26 10:42:22;;;;;;;3.72;1.10;;;;;;;18.59;54.67;101603.69;5148575;28;20044;-83
2022/05/26 10:45:20;;;;;;;0.50;0.50;;;;;;;18.50;53.46;101613.81;5179493;28;20042;-83
2022/05/26 10:48:07;;;;;;;2.00;0.85;;;;;;;18.56;54.01;101616.19;5177216;28;20040;-84
2022/05/26 10:50:42;;;;;;;1.52;1.10;;;;;;;18.74;54.29;101616.25;5142843;28;20030;-83
2022/05/26 10:53:33;;;;;;;0.60;0.60;;;;;;;18.81;52.31;101617.69;5180505;28;20030;-83
2022/05/26 10:56:21;;;;;;;0.68;0.68;;;;;;;18.79;52.45;101619.56;5161704;28;20034;-83
2022/05/26 10:59:01;;;;;;;2.40;0.55;;;;;;;18.64;51.89;101617.59;5150910;28;20042;-84
2022/05/26 11:01:36;;;;;;;0.30;0.30;;;;;;;18.68;53.15;101622.72;5203209;28;20034;-83
2022/05/26 11:04:17;;;;;;;0.68;0.68;;;;;;;18.68;52.54;101619.22;5171824;28;20037;-83
2022/05/26 11:06:51;;;;;;;0.45;0.45;;;;;;;18.87;52.86;101628.03;5149813;28;20053;-83
2022/05/26 11:09:32;;;;;;;0.70;0.40;;;;;;;18.82;51.85;101630.03;5162949;28;20045;-83
2022/05/26 11:12:09;;;;;;;0.40;0.40;;;;;;;18.75;51.03;101628.63;5169703;28;20050;-83
2022/05/26 11:17:59;;;;;;;0.22;0.22;;;;;;;18.93;51.85;101618.91;5166631;28;20038;-83
2022/05/26 11:20:34;;;;;;;;;;;;;;;18.88;51.88;101629.75;5160706;28;20033;-83
2022/05/26 11:23:04;;;;;;;0.40;0.40;;;;;;;18.90;51.62;101623.50;5176971;28;19927;-83
2022/05/26 11:25:45;;;;;;;0.63;0.63;;;;;;;18.86;51.49;101636.97;5180577;28;20639;-83
2022/05/26 11:28:47;;;;;;;0.25;0.25;;;;;;;18.87;51.79;101629.81;5160892;28;20053;-83
2022/05/26 11:37:28;;;;;;;0.40;0.40;;;;;;;18.74;51.28;101631.34;5167600;28;20077;-83
2022/05/26 11:40:03;;;;;;;0.52;0.45;;;;;;;18.80;51.44;101625.75;5165630;28;20266;-83
2022/05/26 11:42:50;;;;;;;1.48;0.85;;;;;;;18.94;51.78;101622.47;5164337;28;20683;-83
2022/05/26 11:45:31;;;;;;;0.50;0.50;;;;;;;19.01;52.12;101621.22;5181558;28;20084;-83
2022/05/26 11:48:05;;;;;;;0.30;0.30;;;;;;;19.13;51.48;101623.28;5178000;28;20056;-83
2022/05/26 11:50:36;;;;;;;0.20;0.20;;;;;;;19.23;50.47;101628.16;5203044;28;20105;-83
2022/05/26 11:53:11;;;;;;;0.20;0.20;;;;;;;19.10;50.59;101634.09;5171031;28;20038;-83
2022/05/26 11:55:47;;;;;;;0.40;0.40;;;;;;;19.15;51.32;101625.88;5196815;28;20049;-83
2022/05/26 11:58:27;;;;;;;1.05;1.05;;;;;;;19.06;51.31;101626.31;5180706;28;20117;-83
2022/05/26 12:01:19;;;;;;;0.73;0.73;;;;;;;19.12;51.21;101637.53;5184253;28;20244;-83
2022/05/26 12:04:00;;;;;;;0.50;0.50;;;;;;;19.06;50.18;101627.16;5150898;28;20034;-82
2022/05/26 12:06:42;;;;;;;0.32;0.32;;;;;;;19.05;49.26;101617.47;5149017;28;20149;-83
2022/05/26 12:09:20;;;;;;;0.55;0.55;;;;;;;19.11;49.92;101618.97;5166489;28;20206;-83
2022/05/26 12:11:55;;;;;;;0.22;0.22;;;;;;;19.16;49.63;101622.28;5180590;28;20029;-83
2022/05/26 12:14:34;;;;;;;0.40;0.40;;;;;;;19.38;49.93;101619.41;5155484;28;20037;-83
2022/05/26 12:17:32;;;;;;;2.85;0.88;;;;;;;19.37;50.59;101620.38;5179548;28;20041;-83
2022/05/26 12:20:12;;;;;;;0.43;0.43;;;;;;;19.43;50.43;101621.84;5161685;28;20057;-83
2022/05/26 12:22:51;;;;;;;0.40;0.40;;;;;;;19.48;49.81;101627.81;5167807;28;20154;-83
2022/05/26 12:25:27;;;;;;;3.05;1.83;;;;;;;19.40;50.36;101630.84;5165970;28;20746;-83
2022/05/26 12:28:21;;;;;;;0.30;0.30;;;;;;;19.48;50.20;101623.31;5166427;28;20641;-83
2022/05/26 12:30:52;;;;;;;0.60;0.60;;;;;;;19.73;48.53;101621.22;5151714;28;20060;-83
2022/05/26 12:33:32;;;;;;;0.25;0.25;;;;;;;19.82;48.96;101623.41;5179031;28;20037;-83
2022/05/26 12:36:27;;;;;;;0.30;0.30;;;;;;;19.77;48.31;101613.00;5179819;28;20056;-84
2022/05/26 12:39:28;;;;;;;1.58;1.48;;;;;;;19.74;48.35;101607.81;5162022;28;20085;-83
2022/05/26 12:42:12;;;;;;;0.20;0.20;;;;;;;19.87;48.96;101602.75;5151669;28;20034;-83
2022/05/26 12:45:19;;;;;;;0.30;0.30;;;;;;;19.92;48.68;101591.88;5184378;28;20057;-83
2022/05/26 12:48:19;;;;;;;0.30;0.30;;;;;;;19.90;47.97;101591.97;5177180;28;20045;-83
2022/05/26 12:50:49;;;;;;;0.95;0.90;;;;;;;19.89;46.95;101587.56;5146514;28;20014;-83
2022/05/26 12:53:27;;;;;;;0.60;0.60;;;;;;;20.03;47.47;101576.19;5165167;28;20100;-83